sensor_id;sensor_type;location;lat;lon;timestamp;temperature;humidity
70986;DHT22;58645;43.068;25.610;2023-10-09T00:01:40;13.50;69.50
70986;DHT22;58645;43.068;25.610;2023-10-09T00:04:10;13.50;68.80
70986;DHT22;58645;43.068;25.610;2023-10-09T00:06:37;13.50;68.10
70986;DHT22;58645;43.068;25.610;2023-10-09T00:09:06;13.50;67.90
70986;DHT22;58645;43.068;25.610;2023-10-09T00:11:51;13.50;67.20
70986;DHT22;58645;43.068;25.610;2023-10-09T00:14:26;13.40;66.60
70986;DHT22;58645;43.068;25.610;2023-10-09T00:16:56;13.40;66.20
70986;DHT22;58645;43.068;25.610;2023-10-09T00:19:37;13.40;65.60
70986;DHT22;58645;43.068;25.610;2023-10-09T00:22:02;13.40;64.70
70986;DHT22;58645;43.068;25.610;2023-10-09T00:24:36;13.40;64.80
70986;DHT22;58645;43.068;25.610;2023-10-09T00:27:06;13.30;63.10
70986;DHT22;58645;43.068;25.610;2023-10-09T00:29:42;13.30;62.70
70986;DHT22;58645;43.068;25.610;2023-10-09T00:32:15;13.20;62.60
70986;DHT22;58645;43.068;25.610;2023-10-09T00:34:49;13.30;61.30
70986;DHT22;58645;43.068;25.610;2023-10-09T00:37:16;13.30;60.50
70986;DHT22;58645;43.068;25.610;2023-10-09T00:39:43;13.20;60.80
70986;DHT22;58645;43.068;25.610;2023-10-09T00:42:14;13.20;60.60
70986;DHT22;58645;43.068;25.610;2023-10-09T00:44:51;13.20;60.00
70986;DHT22;58645;43.068;25.610;2023-10-09T00:47:17;13.20;59.80
70986;DHT22;58645;43.068;25.610;2023-10-09T00:49:51;13.20;59.70
70986;DHT22;58645;43.068;25.610;2023-10-09T00:52:37;13.20;59.60
70986;DHT22;58645;43.068;25.610;2023-10-09T00:55:18;13.20;59.50
70986;DHT22;58645;43.068;25.610;2023-10-09T00:58:02;13.20;59.80
70986;DHT22;58645;43.068;25.610;2023-10-09T01:00:35;13.10;59.10
70986;DHT22;58645;43.068;25.610;2023-10-09T01:03:13;13.10;59.10
70986;DHT22;58645;43.068;25.610;2023-10-09T01:05:39;13.10;59.20
70986;DHT22;58645;43.068;25.610;2023-10-09T01:08:21;13.10;58.70
70986;DHT22;58645;43.068;25.610;2023-10-09T01:11:16;13.10;58.90
70986;DHT22;58645;43.068;25.610;2023-10-09T01:13:55;13.20;58.80
70986;DHT22;58645;43.068;25.610;2023-10-09T01:16:29;13.10;58.80
70986;DHT22;58645;43.068;25.610;2023-10-09T01:18:56;13.10;59.00
70986;DHT22;58645;43.068;25.610;2023-10-09T01:21:23;13.10;59.40
70986;DHT22;58645;43.068;25.610;2023-10-09T01:23:55;13.00;59.30
70986;DHT22;58645;43.068;25.610;2023-10-09T01:26:36;13.10;59.60
70986;DHT22;58645;43.068;25.610;2023-10-09T01:29:05;13.00;59.50
70986;DHT22;58645;43.068;25.610;2023-10-09T01:31:36;13.00;59.80
70986;DHT22;58645;43.068;25.610;2023-10-09T01:34:09;13.00;60.00
70986;DHT22;58645;43.068;25.610;2023-10-09T01:36:41;13.00;60.10
70986;DHT22;58645;43.068;25.610;2023-10-09T01:39:07;13.00;60.20
70986;DHT22;58645;43.068;25.610;2023-10-09T01:41:48;13.00;60.40
70986;DHT22;58645;43.068;25.610;2023-10-09T01:44:15;13.00;60.70
70986;DHT22;58645;43.068;25.610;2023-10-09T01:46:42;13.00;60.40
70986;DHT22;58645;43.068;25.610;2023-10-09T01:49:12;13.00;60.20
70986;DHT22;58645;43.068;25.610;2023-10-09T01:51:47;13.00;60.30
70986;DHT22;58645;43.068;25.610;2023-10-09T01:54:16;13.00;60.60
70986;DHT22;58645;43.068;25.610;2023-10-09T01:56:59;13.00;60.70
70986;DHT22;58645;43.068;25.610;2023-10-09T01:59:31;12.90;60.90
70986;DHT22;58645;43.068;25.610;2023-10-09T02:01:57;13.00;60.90
70986;DHT22;58645;43.068;25.610;2023-10-09T02:04:26;12.90;60.80
70986;DHT22;58645;43.068;25.610;2023-10-09T02:06:52;12.90;60.90
70986;DHT22;58645;43.068;25.610;2023-10-09T02:09:18;12.80;61.10
70986;DHT22;58645;43.068;25.610;2023-10-09T02:11:51;12.90;61.20
70986;DHT22;58645;43.068;25.610;2023-10-09T02:14:17;12.80;61.10
70986;DHT22;58645;43.068;25.610;2023-10-09T02:16:49;12.90;61.30
70986;DHT22;58645;43.068;25.610;2023-10-09T02:19:50;12.80;61.00
70986;DHT22;58645;43.068;25.610;2023-10-09T02:22:17;12.80;60.60
70986;DHT22;58645;43.068;25.610;2023-10-09T02:24:44;12.80;60.50
70986;DHT22;58645;43.068;25.610;2023-10-09T02:27:13;12.70;60.80
70986;DHT22;58645;43.068;25.610;2023-10-09T02:29:46;12.70;60.90
70986;DHT22;58645;43.068;25.610;2023-10-09T02:32:13;12.70;60.70
70986;DHT22;58645;43.068;25.610;2023-10-09T02:34:51;12.70;60.80
70986;DHT22;58645;43.068;25.610;2023-10-09T02:37:20;12.60;60.60
70986;DHT22;58645;43.068;25.610;2023-10-09T02:39:50;12.70;60.70
70986;DHT22;58645;43.068;25.610;2023-10-09T02:42:18;12.60;60.60
70986;DHT22;58645;43.068;25.610;2023-10-09T02:44:52;12.70;60.60
70986;DHT22;58645;43.068;25.610;2023-10-09T02:47:18;12.70;60.30
70986;DHT22;58645;43.068;25.610;2023-10-09T02:49:55;12.70;60.00
70986;DHT22;58645;43.068;25.610;2023-10-09T02:52:32;12.70;59.50
70986;DHT22;58645;43.068;25.610;2023-10-09T02:55:06;12.70;59.60
70986;DHT22;58645;43.068;25.610;2023-10-09T02:57:38;12.60;59.70
70986;DHT22;58645;43.068;25.610;2023-10-09T03:00:07;12.60;59.70
70986;DHT22;58645;43.068;25.610;2023-10-09T03:02:45;12.70;60.00
70986;DHT22;58645;43.068;25.610;2023-10-09T03:05:15;12.70;60.10
70986;DHT22;58645;43.068;25.610;2023-10-09T03:07:41;12.70;60.00
70986;DHT22;58645;43.068;25.610;2023-10-09T03:10:08;12.70;60.10
70986;DHT22;58645;43.068;25.610;2023-10-09T03:12:35;12.70;60.30
70986;DHT22;58645;43.068;25.610;2023-10-09T03:15:01;12.80;59.80
70986;DHT22;58645;43.068;25.610;2023-10-09T03:17:28;12.80;59.60
70986;DHT22;58645;43.068;25.610;2023-10-09T03:19:54;12.70;59.80
70986;DHT22;58645;43.068;25.610;2023-10-09T03:22:20;12.70;59.70
70986;DHT22;58645;43.068;25.610;2023-10-09T03:24:46;12.60;59.80
70986;DHT22;58645;43.068;25.610;2023-10-09T03:27:14;12.60;59.90
70986;DHT22;58645;43.068;25.610;2023-10-09T03:29:41;12.60;59.90
70986;DHT22;58645;43.068;25.610;2023-10-09T03:32:07;12.50;60.10
70986;DHT22;58645;43.068;25.610;2023-10-09T03:34:34;12.40;60.30
70986;DHT22;58645;43.068;25.610;2023-10-09T03:37:00;12.50;60.40
70986;DHT22;58645;43.068;25.610;2023-10-09T03:39:36;12.40;60.40
70986;DHT22;58645;43.068;25.610;2023-10-09T03:42:07;12.50;60.60
70986;DHT22;58645;43.068;25.610;2023-10-09T03:44:38;12.40;60.70
70986;DHT22;58645;43.068;25.610;2023-10-09T03:47:07;12.40;60.80
70986;DHT22;58645;43.068;25.610;2023-10-09T03:49:36;12.40;60.90
70986;DHT22;58645;43.068;25.610;2023-10-09T03:52:05;12.40;61.00
70986;DHT22;58645;43.068;25.610;2023-10-09T03:54:32;12.30;60.90
70986;DHT22;58645;43.068;25.610;2023-10-09T03:57:01;12.40;61.00
70986;DHT22;58645;43.068;25.610;2023-10-09T03:59:27;12.40;60.80
70986;DHT22;58645;43.068;25.610;2023-10-09T04:01:56;12.40;60.80
70986;DHT22;58645;43.068;25.610;2023-10-09T04:04:26;12.40;60.80
70986;DHT22;58645;43.068;25.610;2023-10-09T04:06:54;12.40;60.90
70986;DHT22;58645;43.068;25.610;2023-10-09T04:09:20;12.40;60.60
70986;DHT22;58645;43.068;25.610;2023-10-09T04:11:50;12.40;60.80
70986;DHT22;58645;43.068;25.610;2023-10-09T04:14:34;12.40;60.80
70986;DHT22;58645;43.068;25.610;2023-10-09T04:17:01;12.40;60.70
70986;DHT22;58645;43.068;25.610;2023-10-09T04:19:45;12.50;61.00
70986;DHT22;58645;43.068;25.610;2023-10-09T04:22:24;12.50;60.60
70986;DHT22;58645;43.068;25.610;2023-10-09T04:24:53;12.40;60.60
70986;DHT22;58645;43.068;25.610;2023-10-09T04:27:19;12.40;60.50
70986;DHT22;58645;43.068;25.610;2023-10-09T04:30:01;12.50;60.50
70986;DHT22;58645;43.068;25.610;2023-10-09T04:32:26;12.50;60.70
70986;DHT22;58645;43.068;25.610;2023-10-09T04:34:52;12.50;60.40
70986;DHT22;58645;43.068;25.610;2023-10-09T04:37:44;12.40;60.40
70986;DHT22;58645;43.068;25.610;2023-10-09T04:40:18;12.30;60.60
70986;DHT22;58645;43.068;25.610;2023-10-09T04:43:03;12.40;60.60
70986;DHT22;58645;43.068;25.610;2023-10-09T04:45:36;12.40;60.70
70986;DHT22;58645;43.068;25.610;2023-10-09T04:48:20;12.40;60.40
70986;DHT22;58645;43.068;25.610;2023-10-09T04:51:01;12.40;60.80
70986;DHT22;58645;43.068;25.610;2023-10-09T04:53:50;12.40;60.40
70986;DHT22;58645;43.068;25.610;2023-10-09T04:56:16;12.40;60.20
70986;DHT22;58645;43.068;25.610;2023-10-09T04:58:43;12.40;60.20
70986;DHT22;58645;43.068;25.610;2023-10-09T05:01:11;12.40;60.30
70986;DHT22;58645;43.068;25.610;2023-10-09T05:03:45;12.40;60.10
70986;DHT22;58645;43.068;25.610;2023-10-09T05:06:11;12.50;60.10
70986;DHT22;58645;43.068;25.610;2023-10-09T05:08:56;12.50;59.80
70986;DHT22;58645;43.068;25.610;2023-10-09T05:11:34;12.50;59.70
70986;DHT22;58645;43.068;25.610;2023-10-09T05:14:21;12.50;59.70
70986;DHT22;58645;43.068;25.610;2023-10-09T05:17:11;12.60;59.80
70986;DHT22;58645;43.068;25.610;2023-10-09T05:19:41;12.60;59.40
70986;DHT22;58645;43.068;25.610;2023-10-09T05:22:11;12.70;59.60
70986;DHT22;58645;43.068;25.610;2023-10-09T05:24:58;12.70;59.50
70986;DHT22;58645;43.068;25.610;2023-10-09T05:27:24;12.70;59.30
70986;DHT22;58645;43.068;25.610;2023-10-09T05:30:10;12.70;59.50
70986;DHT22;58645;43.068;25.610;2023-10-09T05:32:53;12.70;59.70
70986;DHT22;58645;43.068;25.610;2023-10-09T05:35:24;12.90;59.80
70986;DHT22;58645;43.068;25.610;2023-10-09T05:38:07;12.80;59.60
70986;DHT22;58645;43.068;25.610;2023-10-09T05:40:41;12.80;59.60
70986;DHT22;58645;43.068;25.610;2023-10-09T05:43:20;12.90;59.70
70986;DHT22;58645;43.068;25.610;2023-10-09T05:46:05;12.70;59.80
70986;DHT22;58645;43.068;25.610;2023-10-09T05:48:35;12.90;59.70
70986;DHT22;58645;43.068;25.610;2023-10-09T05:51:03;13.00;59.80
70986;DHT22;58645;43.068;25.610;2023-10-09T05:53:35;12.90;60.00
70986;DHT22;58645;43.068;25.610;2023-10-09T05:56:10;12.90;60.20
70986;DHT22;58645;43.068;25.610;2023-10-09T05:58:58;12.90;60.20
70986;DHT22;58645;43.068;25.610;2023-10-09T06:01:42;12.80;60.60
70986;DHT22;58645;43.068;25.610;2023-10-09T06:04:26;12.80;60.70
70986;DHT22;58645;43.068;25.610;2023-10-09T06:07:22;12.90;60.70
70986;DHT22;58645;43.068;25.610;2023-10-09T06:10:10;12.90;60.40
70986;DHT22;58645;43.068;25.610;2023-10-09T06:12:57;12.90;60.60
70986;DHT22;58645;43.068;25.610;2023-10-09T06:15:34;12.80;60.60
70986;DHT22;58645;43.068;25.610;2023-10-09T06:18:15;12.90;61.00
70986;DHT22;58645;43.068;25.610;2023-10-09T06:21:03;12.90;61.00
70986;DHT22;58645;43.068;25.610;2023-10-09T06:23:47;12.90;61.00
70986;DHT22;58645;43.068;25.610;2023-10-09T06:26:34;12.90;61.00
70986;DHT22;58645;43.068;25.610;2023-10-09T06:29:00;12.90;61.30
70986;DHT22;58645;43.068;25.610;2023-10-09T06:31:42;13.00;60.90
70986;DHT22;58645;43.068;25.610;2023-10-09T06:34:27;13.00;61.10
70986;DHT22;58645;43.068;25.610;2023-10-09T06:37:01;13.00;61.00
70986;DHT22;58645;43.068;25.610;2023-10-09T06:39:43;13.00;61.40
70986;DHT22;58645;43.068;25.610;2023-10-09T06:42:28;13.00;61.00
70986;DHT22;58645;43.068;25.610;2023-10-09T06:45:04;13.00;60.80
70986;DHT22;58645;43.068;25.610;2023-10-09T06:47:43;12.90;60.70
70986;DHT22;58645;43.068;25.610;2023-10-09T06:50:30;13.00;60.70
70986;DHT22;58645;43.068;25.610;2023-10-09T06:53:24;12.90;60.80
70986;DHT22;58645;43.068;25.610;2023-10-09T06:56:10;12.90;60.50
70986;DHT22;58645;43.068;25.610;2023-10-09T06:58:49;13.00;60.40
70986;DHT22;58645;43.068;25.610;2023-10-09T07:01:15;13.00;60.20
70986;DHT22;58645;43.068;25.610;2023-10-09T07:03:56;13.00;60.20
70986;DHT22;58645;43.068;25.610;2023-10-09T07:06:40;13.10;60.10
70986;DHT22;58645;43.068;25.610;2023-10-09T07:09:06;13.00;59.60
70986;DHT22;58645;43.068;25.610;2023-10-09T07:11:33;13.20;59.70
70986;DHT22;58645;43.068;25.610;2023-10-09T07:14:08;13.30;59.60
70986;DHT22;58645;43.068;25.610;2023-10-09T07:16:57;13.40;59.50
70986;DHT22;58645;43.068;25.610;2023-10-09T07:19:29;13.60;58.50
70986;DHT22;58645;43.068;25.610;2023-10-09T07:22:24;13.80;57.80
70986;DHT22;58645;43.068;25.610;2023-10-09T07:24:56;13.90;57.20
70986;DHT22;58645;43.068;25.610;2023-10-09T07:27:26;14.10;56.60
70986;DHT22;58645;43.068;25.610;2023-10-09T07:30:15;14.50;55.80
70986;DHT22;58645;43.068;25.610;2023-10-09T07:32:57;14.90;55.10
70986;DHT22;58645;43.068;25.610;2023-10-09T07:35:47;15.20;54.90
70986;DHT22;58645;43.068;25.610;2023-10-09T07:38:23;15.70;54.20
70986;DHT22;58645;43.068;25.610;2023-10-09T07:40:55;16.10;52.30
70986;DHT22;58645;43.068;25.610;2023-10-09T07:43:43;16.70;51.60
70986;DHT22;58645;43.068;25.610;2023-10-09T07:46:19;16.70;50.40
70986;DHT22;58645;43.068;25.610;2023-10-09T07:49:05;17.00;50.20
70986;DHT22;58645;43.068;25.610;2023-10-09T07:51:39;17.30;49.70
70986;DHT22;58645;43.068;25.610;2023-10-09T07:54:09;18.00;48.90
70986;DHT22;58645;43.068;25.610;2023-10-09T07:56:43;19.80;45.30
70986;DHT22;58645;43.068;25.610;2023-10-09T07:59:13;20.60;42.70
70986;DHT22;58645;43.068;25.610;2023-10-09T08:01:55;20.40;42.20
70986;DHT22;58645;43.068;25.610;2023-10-09T08:04:26;21.00;41.10
70986;DHT22;58645;43.068;25.610;2023-10-09T08:07:11;20.80;40.60
70986;DHT22;58645;43.068;25.610;2023-10-09T08:10:03;20.20;42.60
70986;DHT22;58645;43.068;25.610;2023-10-09T08:12:41;21.40;41.40
70986;DHT22;58645;43.068;25.610;2023-10-09T08:15:46;22.40;39.50
70986;DHT22;58645;43.068;25.610;2023-10-09T08:18:17;23.00;37.80
70986;DHT22;58645;43.068;25.610;2023-10-09T08:20:56;23.10;37.80
70986;DHT22;58645;43.068;25.610;2023-10-09T08:23:30;24.00;36.20
70986;DHT22;58645;43.068;25.610;2023-10-09T08:26:14;24.70;35.80
70986;DHT22;58645;43.068;25.610;2023-10-09T08:28:45;25.30;34.00
70986;DHT22;58645;43.068;25.610;2023-10-09T08:31:13;25.40;34.10
70986;DHT22;58645;43.068;25.610;2023-10-09T08:34:00;25.50;33.90
70986;DHT22;58645;43.068;25.610;2023-10-09T08:36:27;25.60;33.30
70986;DHT22;58645;43.068;25.610;2023-10-09T08:38:55;25.70;33.60
70986;DHT22;58645;43.068;25.610;2023-10-09T08:41:41;26.00;34.00
70986;DHT22;58645;43.068;25.610;2023-10-09T08:44:07;25.40;33.90
70986;DHT22;58645;43.068;25.610;2023-10-09T08:46:34;24.90;34.40
70986;DHT22;58645;43.068;25.610;2023-10-09T08:49:02;24.80;34.40
70986;DHT22;58645;43.068;25.610;2023-10-09T08:51:37;24.80;36.40
70986;DHT22;58645;43.068;25.610;2023-10-09T08:54:03;25.40;35.40
70986;DHT22;58645;43.068;25.610;2023-10-09T08:56:30;26.00;33.40
70986;DHT22;58645;43.068;25.610;2023-10-09T08:58:58;26.70;31.50
70986;DHT22;58645;43.068;25.610;2023-10-09T09:01:29;26.80;31.10
70986;DHT22;58645;43.068;25.610;2023-10-09T09:03:58;26.90;30.40
70986;DHT22;58645;43.068;25.610;2023-10-09T09:06:25;26.80;31.00
70986;DHT22;58645;43.068;25.610;2023-10-09T09:08:52;27.90;30.00
70986;DHT22;58645;43.068;25.610;2023-10-09T09:11:25;27.90;29.10
70986;DHT22;58645;43.068;25.610;2023-10-09T09:16:29;28.00;29.80
70986;DHT22;58645;43.068;25.610;2023-10-09T09:19:01;27.80;30.50
70986;DHT22;58645;43.068;25.610;2023-10-09T09:21:50;28.40;29.80
70986;DHT22;58645;43.068;25.610;2023-10-09T09:24:20;28.30;29.20
70986;DHT22;58645;43.068;25.610;2023-10-09T09:27:01;28.30;29.00
70986;DHT22;58645;43.068;25.610;2023-10-09T09:29:39;28.00;30.40
70986;DHT22;58645;43.068;25.610;2023-10-09T09:32:07;28.00;29.70
70986;DHT22;58645;43.068;25.610;2023-10-09T09:34:51;27.90;29.80
70986;DHT22;58645;43.068;25.610;2023-10-09T09:37:35;28.10;29.40
70986;DHT22;58645;43.068;25.610;2023-10-09T09:40:04;28.40;29.60
70986;DHT22;58645;43.068;25.610;2023-10-09T09:43:00;29.40;28.30
70986;DHT22;58645;43.068;25.610;2023-10-09T09:45:40;29.60;28.00
70986;DHT22;58645;43.068;25.610;2023-10-09T09:48:19;29.30;28.50
70986;DHT22;58645;43.068;25.610;2023-10-09T09:50:47;29.70;27.70
70986;DHT22;58645;43.068;25.610;2023-10-09T09:53:16;29.90;27.80
70986;DHT22;58645;43.068;25.610;2023-10-09T09:55:50;29.60;27.30
70986;DHT22;58645;43.068;25.610;2023-10-09T09:58:23;30.00;27.90
70986;DHT22;58645;43.068;25.610;2023-10-09T10:00:56;30.10;27.20
70986;DHT22;58645;43.068;25.610;2023-10-09T10:03:40;30.10;27.80
70986;DHT22;58645;43.068;25.610;2023-10-09T10:06:10;30.30;28.10
70986;DHT22;58645;43.068;25.610;2023-10-09T10:08:41;30.60;26.90
70986;DHT22;58645;43.068;25.610;2023-10-09T10:11:07;30.90;25.50
70986;DHT22;58645;43.068;25.610;2023-10-09T10:16:11;30.60;25.90
70986;DHT22;58645;43.068;25.610;2023-10-09T10:18:57;29.80;27.30
70986;DHT22;58645;43.068;25.610;2023-10-09T10:21:49;29.80;27.10
70986;DHT22;58645;43.068;25.610;2023-10-09T10:27:15;29.60;28.10
70986;DHT22;58645;43.068;25.610;2023-10-09T10:33:03;29.80;27.60
70986;DHT22;58645;43.068;25.610;2023-10-09T10:35:37;29.60;28.00
70986;DHT22;58645;43.068;25.610;2023-10-09T10:40:50;29.70;28.60
70986;DHT22;58645;43.068;25.610;2023-10-09T10:43:26;29.90;26.80
70986;DHT22;58645;43.068;25.610;2023-10-09T10:46:05;29.50;27.10
70986;DHT22;58645;43.068;25.610;2023-10-09T10:48:39;29.60;27.30
70986;DHT22;58645;43.068;25.610;2023-10-09T10:51:12;30.00;27.70
70986;DHT22;58645;43.068;25.610;2023-10-09T10:54:07;30.10;27.40
70986;DHT22;58645;43.068;25.610;2023-10-09T10:56:52;30.30;26.80
70986;DHT22;58645;43.068;25.610;2023-10-09T10:59:19;30.00;27.10
70986;DHT22;58645;43.068;25.610;2023-10-09T11:01:54;29.50;27.20
70986;DHT22;58645;43.068;25.610;2023-10-09T11:04:27;29.40;27.80
70986;DHT22;58645;43.068;25.610;2023-10-09T11:06:56;28.90;27.80
70986;DHT22;58645;43.068;25.610;2023-10-09T11:12:45;29.60;27.10
70986;DHT22;58645;43.068;25.610;2023-10-09T11:15:36;28.90;28.40
70986;DHT22;58645;43.068;25.610;2023-10-09T11:18:23;28.90;29.10
70986;DHT22;58645;43.068;25.610;2023-10-09T11:20:58;29.20;28.20
70986;DHT22;58645;43.068;25.610;2023-10-09T11:23:30;28.80;28.00
70986;DHT22;58645;43.068;25.610;2023-10-09T11:26:08;28.50;28.50
70986;DHT22;58645;43.068;25.610;2023-10-09T11:29:12;27.90;29.40
70986;DHT22;58645;43.068;25.610;2023-10-09T11:32:20;28.60;29.80
70986;DHT22;58645;43.068;25.610;2023-10-09T11:35:09;29.20;27.60
70986;DHT22;58645;43.068;25.610;2023-10-09T11:37:40;28.40;28.70
70986;DHT22;58645;43.068;25.610;2023-10-09T11:40:28;28.50;28.40
70986;DHT22;58645;43.068;25.610;2023-10-09T11:43:00;28.90;28.00
70986;DHT22;58645;43.068;25.610;2023-10-09T11:45:27;29.40;27.60
70986;DHT22;58645;43.068;25.610;2023-10-09T11:48:17;29.70;26.50
70986;DHT22;58645;43.068;25.610;2023-10-09T11:51:15;29.50;27.10
70986;DHT22;58645;43.068;25.610;2023-10-09T11:53:46;29.60;27.10
70986;DHT22;58645;43.068;25.610;2023-10-09T11:56:15;29.20;27.00
70986;DHT22;58645;43.068;25.610;2023-10-09T11:58:49;29.80;26.20
70986;DHT22;58645;43.068;25.610;2023-10-09T12:01:18;29.70;26.60
70986;DHT22;58645;43.068;25.610;2023-10-09T12:03:48;28.80;27.30
70986;DHT22;58645;43.068;25.610;2023-10-09T12:06:20;28.50;27.60
70986;DHT22;58645;43.068;25.610;2023-10-09T12:08:48;28.50;28.20
70986;DHT22;58645;43.068;25.610;2023-10-09T12:11:17;28.60;28.00
70986;DHT22;58645;43.068;25.610;2023-10-09T12:13:54;28.50;28.70
70986;DHT22;58645;43.068;25.610;2023-10-09T12:16:26;28.70;27.60
70986;DHT22;58645;43.068;25.610;2023-10-09T12:18:57;28.00;29.20
70986;DHT22;58645;43.068;25.610;2023-10-09T12:21:23;27.40;30.00
70986;DHT22;58645;43.068;25.610;2023-10-09T12:23:49;26.90;30.60
70986;DHT22;58645;43.068;25.610;2023-10-09T12:26:15;26.00;32.40
70986;DHT22;58645;43.068;25.610;2023-10-09T12:28:41;25.60;33.90
70986;DHT22;58645;43.068;25.610;2023-10-09T12:31:15;25.20;34.00
70986;DHT22;58645;43.068;25.610;2023-10-09T12:33:41;24.70;34.80
70986;DHT22;58645;43.068;25.610;2023-10-09T12:36:13;24.40;36.00
70986;DHT22;58645;43.068;25.610;2023-10-09T12:38:46;23.80;36.70
70986;DHT22;58645;43.068;25.610;2023-10-09T12:41:18;23.40;37.70
70986;DHT22;58645;43.068;25.610;2023-10-09T12:44:06;23.20;38.60
70986;DHT22;58645;43.068;25.610;2023-10-09T12:46:40;23.00;38.60
70986;DHT22;58645;43.068;25.610;2023-10-09T12:49:06;22.80;39.00
70986;DHT22;58645;43.068;25.610;2023-10-09T12:51:32;22.60;39.40
70986;DHT22;58645;43.068;25.610;2023-10-09T12:53:58;22.60;39.90
70986;DHT22;58645;43.068;25.610;2023-10-09T12:56:29;22.60;39.40
70986;DHT22;58645;43.068;25.610;2023-10-09T12:59:01;22.50;39.60
70986;DHT22;58645;43.068;25.610;2023-10-09T13:01:30;22.50;39.70
70986;DHT22;58645;43.068;25.610;2023-10-09T13:04:00;22.40;39.80
70986;DHT22;58645;43.068;25.610;2023-10-09T13:06:29;22.40;38.80
70986;DHT22;58645;43.068;25.610;2023-10-09T13:08:55;22.40;39.40
70986;DHT22;58645;43.068;25.610;2023-10-09T13:11:25;22.20;39.80
70986;DHT22;58645;43.068;25.610;2023-10-09T13:13:54;22.00;39.50
70986;DHT22;58645;43.068;25.610;2023-10-09T13:16:21;22.00;40.20
70986;DHT22;58645;43.068;25.610;2023-10-09T13:18:56;21.90;40.00
70986;DHT22;58645;43.068;25.610;2023-10-09T13:21:28;21.80;40.30
70986;DHT22;58645;43.068;25.610;2023-10-09T13:24:00;22.00;40.50
70986;DHT22;58645;43.068;25.610;2023-10-09T13:26:27;22.00;40.30
70986;DHT22;58645;43.068;25.610;2023-10-09T13:28:57;22.10;39.50
70986;DHT22;58645;43.068;25.610;2023-10-09T13:31:24;22.00;39.70
70986;DHT22;58645;43.068;25.610;2023-10-09T13:33:55;22.10;38.60
70986;DHT22;58645;43.068;25.610;2023-10-09T13:36:29;22.00;38.30
70986;DHT22;58645;43.068;25.610;2023-10-09T13:39:00;22.00;38.60
70986;DHT22;58645;43.068;25.610;2023-10-09T13:41:48;21.80;37.30
70986;DHT22;58645;43.068;25.610;2023-10-09T13:44:15;21.60;36.90
70986;DHT22;58645;43.068;25.610;2023-10-09T13:46:40;21.50;37.90
70986;DHT22;58645;43.068;25.610;2023-10-09T13:49:10;21.60;37.80
70986;DHT22;58645;43.068;25.610;2023-10-09T13:51:43;21.60;38.70
70986;DHT22;58645;43.068;25.610;2023-10-09T13:54:12;21.40;39.40
70986;DHT22;58645;43.068;25.610;2023-10-09T13:56:54;21.40;39.40
70986;DHT22;58645;43.068;25.610;2023-10-09T13:59:24;21.50;39.50
70986;DHT22;58645;43.068;25.610;2023-10-09T14:01:56;21.40;39.10
70986;DHT22;58645;43.068;25.610;2023-10-09T14:04:25;21.30;39.00
70986;DHT22;58645;43.068;25.610;2023-10-09T14:06:54;21.30;39.00
70986;DHT22;58645;43.068;25.610;2023-10-09T14:09:25;21.30;39.30
70986;DHT22;58645;43.068;25.610;2023-10-09T14:12:00;21.20;39.10
70986;DHT22;58645;43.068;25.610;2023-10-09T14:17:13;21.20;39.70
70986;DHT22;58645;43.068;25.610;2023-10-09T14:19:40;21.20;39.50
70986;DHT22;58645;43.068;25.610;2023-10-09T14:24:43;21.10;38.70
70986;DHT22;58645;43.068;25.610;2023-10-09T14:27:14;21.10;38.40
70986;DHT22;58645;43.068;25.610;2023-10-09T14:29:53;21.00;37.90
70986;DHT22;58645;43.068;25.610;2023-10-09T14:32:25;20.90;38.20
70986;DHT22;58645;43.068;25.610;2023-10-09T14:34:57;20.90;38.10
70986;DHT22;58645;43.068;25.610;2023-10-09T14:37:38;20.80;38.10
70986;DHT22;58645;43.068;25.610;2023-10-09T14:40:06;20.70;38.30
70986;DHT22;58645;43.068;25.610;2023-10-09T14:42:47;20.80;38.20
70986;DHT22;58645;43.068;25.610;2023-10-09T14:45:15;20.80;37.70
70986;DHT22;58645;43.068;25.610;2023-10-09T14:47:42;20.70;37.80
70986;DHT22;58645;43.068;25.610;2023-10-09T14:50:07;20.70;37.50
70986;DHT22;58645;43.068;25.610;2023-10-09T14:52:34;20.50;36.90
70986;DHT22;58645;43.068;25.610;2023-10-09T14:55:05;20.50;36.80
70986;DHT22;58645;43.068;25.610;2023-10-09T14:57:31;20.50;37.20
70986;DHT22;58645;43.068;25.610;2023-10-09T15:00:03;20.40;36.20
70986;DHT22;58645;43.068;25.610;2023-10-09T15:02:39;20.40;36.20
70986;DHT22;58645;43.068;25.610;2023-10-09T15:05:05;20.30;36.20
70986;DHT22;58645;43.068;25.610;2023-10-09T15:07:35;20.30;36.40
70986;DHT22;58645;43.068;25.610;2023-10-09T15:10:05;20.20;36.30
70986;DHT22;58645;43.068;25.610;2023-10-09T15:12:33;20.30;36.20
70986;DHT22;58645;43.068;25.610;2023-10-09T15:15:04;20.30;36.20
70986;DHT22;58645;43.068;25.610;2023-10-09T15:17:37;20.20;36.30
70986;DHT22;58645;43.068;25.610;2023-10-09T15:20:03;20.10;36.80
70986;DHT22;58645;43.068;25.610;2023-10-09T15:22:35;20.00;36.10
70986;DHT22;58645;43.068;25.610;2023-10-09T15:25:02;19.90;36.60
70986;DHT22;58645;43.068;25.610;2023-10-09T15:27:30;19.80;36.60
70986;DHT22;58645;43.068;25.610;2023-10-09T15:29:56;19.70;36.80
70986;DHT22;58645;43.068;25.610;2023-10-09T15:32:21;19.60;37.00
70986;DHT22;58645;43.068;25.610;2023-10-09T15:34:49;19.40;37.10
70986;DHT22;58645;43.068;25.610;2023-10-09T15:37:15;19.40;37.10
70986;DHT22;58645;43.068;25.610;2023-10-09T15:39:43;19.20;37.60
70986;DHT22;58645;43.068;25.610;2023-10-09T15:42:09;19.20;37.40
70986;DHT22;58645;43.068;25.610;2023-10-09T15:44:39;19.00;37.50
70986;DHT22;58645;43.068;25.610;2023-10-09T15:47:05;18.90;37.70
70986;DHT22;58645;43.068;25.610;2023-10-09T15:49:34;18.80;37.80
70986;DHT22;58645;43.068;25.610;2023-10-09T15:52:06;18.70;37.90
70986;DHT22;58645;43.068;25.610;2023-10-09T15:54:37;18.60;38.00
70986;DHT22;58645;43.068;25.610;2023-10-09T15:57:03;18.50;38.40
70986;DHT22;58645;43.068;25.610;2023-10-09T15:59:29;18.50;38.70
70986;DHT22;58645;43.068;25.610;2023-10-09T16:01:58;18.40;38.80
70986;DHT22;58645;43.068;25.610;2023-10-09T16:04:24;18.30;39.10
70986;DHT22;58645;43.068;25.610;2023-10-09T16:06:50;18.20;39.50
70986;DHT22;58645;43.068;25.610;2023-10-09T16:09:18;18.20;39.80
70986;DHT22;58645;43.068;25.610;2023-10-09T16:11:47;18.10;40.20
70986;DHT22;58645;43.068;25.610;2023-10-09T16:14:13;18.00;40.60
70986;DHT22;58645;43.068;25.610;2023-10-09T16:16:41;18.00;41.10
70986;DHT22;58645;43.068;25.610;2023-10-09T16:19:10;17.90;41.00